Time;durP1;ratioP1;P1;durP2;ratioP2;P2;SDS_P1;SDS_P2;PMS_P1;PMS_P2;Temp;Humidity;BMP_temperature;BMP_pressure;BME280_temperature;BME280_humidity;BME280_pressure;Samples;Min_cycle;Max_cycle;Signal;HPM_P1;HPM_P2
2022/08/21 00:02:44;;;;;;;;;;;17.00;99.90;;;15.86;100.00;95772.44;10365192;28;2362;-66
2022/08/21 00:07:47;;;;;;;;;;;17.00;99.90;;;15.77;100.00;95771.53;10352234;28;2391;-66
2022/08/21 00:12:50;;;;;;;;;;;16.90;99.90;;;15.80;100.00;95770.94;10351529;28;2307;-66
2022/08/21 00:17:53;;;;;;;;;;;16.80;99.90;;;15.67;100.00;95770.69;10350081;28;2322;-69
2022/08/21 00:22:56;;;;;;;;;;;16.80;99.90;;;15.62;100.00;95772.69;10358102;28;2341;-66
2022/08/21 00:27:59;;;;;;;;;;;16.70;99.90;;;15.53;100.00;95772.59;10353506;28;2418;-66
2022/08/21 00:33:02;;;;;;;;;;;16.70;99.90;;;15.56;100.00;95771.97;10354332;28;2346;-67
2022/08/21 00:38:04;;;;;;;;;;;16.70;99.90;;;15.61;100.00;95765.66;10356204;28;2428;-66
2022/08/21 00:43:07;;;;;;;;;;;16.70;99.90;;;15.54;100.00;95763.34;10350003;28;2298;-66
2022/08/21 00:48:10;;;;;;;;;;;16.60;99.90;;;15.41;100.00;95766.91;10349684;28;2370;-66
2022/08/21 00:53:13;;;;;;;;;;;16.60;99.90;;;15.40;100.00;95770.72;10351247;28;2318;-66
2022/08/21 00:58:15;;;;;;;;;;;16.50;99.90;;;15.32;100.00;95757.88;10348449;28;2326;-67
2022/08/21 01:03:20;;;;;;;;;;;16.50;99.90;;;15.31;100.00;95756.28;10350007;28;1932;-69
2022/08/21 01:08:27;;;;;;;;;;;16.40;99.90;;;15.26;100.00;95748.25;10351414;28;2270;-68
2022/08/21 01:13:30;;;;;;;;;;;16.40;99.90;;;15.18;100.00;95746.28;10354808;28;2369;-74
2022/08/21 01:18:33;;;;;;;;;;;16.30;99.90;;;15.14;100.00;95749.59;10352517;28;2345;-69
2022/08/21 01:23:37;;;;;;;;;;;16.20;99.90;;;15.05;100.00;95748.69;10358525;28;2369;-68
2022/08/21 01:28:40;;;;;;;;;;;16.20;99.90;;;15.01;100.00;95742.25;10364356;28;2329;-68
2022/08/21 01:33:43;;;;;;;;;;;16.10;99.90;;;15.02;100.00;95743.91;10351437;28;2362;-68
2022/08/21 01:38:48;;;;;;;;;;;16.10;99.90;;;14.96;100.00;95739.69;10349040;28;2424;-67
2022/08/21 01:43:50;;;;;;;;;;;16.10;99.90;;;14.96;100.00;95747.81;10361759;28;2341;-67
2022/08/21 01:48:53;;;;;;;;;;;16.10;99.90;;;14.92;100.00;95748.69;10363860;28;2274;-76
2022/08/21 01:53:56;;;;;;;;;;;16.00;99.90;;;14.87;100.00;95744.97;10362683;28;2334;-75
2022/08/21 01:58:58;;;;;;;;;;;16.00;99.90;;;14.81;100.00;95743.47;10351419;28;2404;-72
2022/08/21 02:04:01;;;;;;;;;;;15.90;99.90;;;14.75;100.00;95733.06;10360756;28;2331;-68
2022/08/21 02:09:04;;;;;;;;;;;15.90;99.90;;;14.76;100.00;95721.97;10357026;28;2302;-67
2022/08/21 02:14:07;;;;;;;;;;;15.90;99.90;;;14.75;100.00;95722.22;10363801;28;1980;-68
2022/08/21 02:19:10;;;;;;;;;;;15.80;99.90;;;14.84;100.00;95723.16;10354967;28;2326;-67
2022/08/21 02:24:13;;;;;;;;;;;15.80;99.90;;;14.65;100.00;95722.44;10361945;28;2061;-68
2022/08/21 02:29:16;;;;;;;;;;;15.80;99.90;;;14.64;100.00;95726.25;10354902;28;2350;-69
2022/08/21 02:34:18;;;;;;;;;;;15.80;99.90;;;14.60;100.00;95723.34;10354513;28;2410;-67
2022/08/21 02:39:21;;;;;;;;;;;15.80;99.90;;;14.60;100.00;95726.84;10355857;28;2722;-67
2022/08/21 02:44:29;;;;;;;;;;;15.70;99.90;;;14.46;100.00;95726.03;10357852;28;2302;-67
2022/08/21 02:49:36;;;;;;;;;;;15.70;99.90;;;14.58;100.00;95718.25;10352823;28;2298;-67
2022/08/21 02:54:39;;;;;;;;;;;15.70;99.90;;;14.49;100.00;95719.22;10352009;28;2402;-66
2022/08/21 02:59:42;;;;;;;;;;;15.70;99.90;;;14.46;100.00;95709.81;10352010;28;2345;-66
2022/08/21 03:04:46;;;;;;;;;;;15.60;99.90;;;14.44;100.00;95716.56;10356849;28;2011;-67
2022/08/21 03:09:48;;;;;;;;;;;15.60;99.90;;;14.41;100.00;95718.00;10351842;28;1906;-66
2022/08/21 03:14:57;;;;;;;;;;;15.60;99.90;;;14.38;100.00;95721.31;10356519;28;2378;-67
2022/08/21 03:20:00;;;;;;;;;;;15.50;99.90;;;14.37;100.00;95727.78;10358762;28;2326;-69
2022/08/21 03:25:03;;;;;;;;;;;15.50;99.90;;;14.45;100.00;95724.41;10350390;28;2286;-67
2022/08/21 03:30:08;;;;;;;;;;;15.60;99.90;;;14.46;100.00;95717.94;10350850;28;2298;-67
2022/08/21 03:35:11;;;;;;;;;;;15.50;99.90;;;14.45;100.00;95721.72;10356951;28;2403;-67
2022/08/21 03:40:14;;;;;;;;;;;15.50;99.90;;;14.45;100.00;95721.72;10351746;28;1917;-67
2022/08/21 03:45:17;;;;;;;;;;;15.50;99.90;;;14.36;100.00;95718.06;10349579;28;2036;-68
2022/08/21 03:50:20;;;;;;;;;;;15.50;99.90;;;14.31;100.00;95735.22;10351324;28;2346;-68
2022/08/21 03:55:22;;;;;;;;;;;15.50;99.90;;;14.36;100.00;95728.09;10351391;28;2279;-68
2022/08/21 04:00:25;;;;;;;;;;;15.40;99.90;;;14.32;100.00;95733.31;10345654;28;2412;-67
2022/08/21 04:05:29;;;;;;;;;;;15.40;99.90;;;14.39;100.00;95725.59;10351987;28;1923;-68
2022/08/21 04:10:32;;;;;;;;;;;15.40;99.90;;;14.36;100.00;95730.81;10349974;28;2406;-68
2022/08/21 04:15:35;;;;;;;;;;;15.40;99.90;;;14.42;100.00;95737.72;10347281;28;2322;-68
2022/08/21 04:20:38;;;;;;;;;;;15.50;99.90;;;14.47;100.00;95733.06;10349262;28;2285;-69
2022/08/21 04:25:40;;;;;;;;;;;15.60;99.90;;;14.60;100.00;95740.38;10354772;28;2371;-76
2022/08/21 04:30:44;;;;;;;;;;;15.50;99.90;;;14.65;100.00;95739.50;10356510;28;2401;-68
2022/08/21 04:35:47;;;;;;;;;;;15.60;99.90;;;14.64;100.00;95747.91;10361634;28;1938;-68
2022/08/21 04:40:49;;;;;;;;;;;15.70;99.90;;;14.65;100.00;95760.31;10356505;28;2297;-67
2022/08/21 04:45:53;;;;;;;;;;;15.70;99.90;;;14.60;100.00;95759.31;10353668;28;2389;-71
2022/08/21 04:50:56;;;;;;;;;;;15.70;99.90;;;14.67;100.00;95766.22;10357880;28;2425;-68
2022/08/21 04:55:58;;;;;;;;;;;15.70;99.90;;;14.67;100.00;95758.91;10350545;28;2290;-67
2022/08/21 05:01:01;;;;;;;;;;;15.70;99.90;;;14.69;100.00;95766.72;10358459;28;2331;-67
2022/08/21 05:06:04;;;;;;;;;;;15.80;99.90;;;15.09;100.00;95770.56;10361774;28;2306;-68
2022/08/21 05:11:08;;;;;;;;;;;15.90;99.90;;;15.56;100.00;95750.28;10361051;28;2480;-71
2022/08/21 05:16:11;;;;;;;;;;;16.20;99.90;;;16.03;100.00;95756.28;10358654;28;2321;-72
2022/08/21 05:21:13;;;;;;;;;;;16.60;99.90;;;16.64;100.00;95749.28;10362345;28;2246;-67
2022/08/21 05:26:16;;;;;;;;;;;17.00;99.90;;;17.15;100.00;95747.91;10356412;28;1944;-69
2022/08/21 05:31:20;;;;;;;;;;;17.40;99.90;;;17.19;100.00;95754.31;10362502;28;2370;-70
2022/08/21 05:36:23;;;;;;;;;;;17.60;99.90;;;17.41;100.00;95755.31;10357558;28;2339;-69
2022/08/21 05:41:26;;;;;;;;;;;17.80;99.90;;;17.29;100.00;95767.59;10360290;28;2358;-68
2022/08/21 05:46:29;;;;;;;;;;;17.90;99.90;;;17.46;100.00;95763.31;10356988;28;2294;-69
2022/08/21 05:51:32;;;;;;;;;;;18.00;99.90;;;17.59;100.00;95767.81;10349449;28;2361;-69
2022/08/21 05:56:35;;;;;;;;;;;18.20;99.90;;;17.85;100.00;95772.50;10349816;28;2357;-72
2022/08/21 06:01:38;;;;;;;;;;;18.30;99.90;;;18.02;100.00;95767.84;10350823;28;2502;-68
2022/08/21 06:06:40;;;;;;;;;;;18.50;99.90;;;18.07;100.00;95762.25;10353942;28;2306;-67
2022/08/21 06:11:43;;;;;;;;;;;18.60;99.90;;;18.34;100.00;95771.19;10352206;28;2366;-68
2022/08/21 06:16:46;;;;;;;;;;;18.80;99.90;;;18.31;100.00;95766.38;10347107;28;2369;-68
2022/08/21 06:21:50;;;;;;;;;;;18.90;99.90;;;18.54;100.00;95764.25;10351788;28;1848;-68
2022/08/21 06:26:52;;;;;;;;;;;19.10;99.90;;;18.76;100.00;95757.78;10351081;28;2274;-68
2022/08/21 06:31:55;;;;;;;;;;;19.20;99.90;;;18.97;100.00;95766.06;10347620;28;2302;-73
2022/08/21 06:36:58;;;;;;;;;;;19.30;99.90;;;18.99;100.00;95767.31;10352193;28;2433;-67
2022/08/21 06:42:01;;;;;;;;;;;19.50;99.90;;;19.04;100.00;95760.91;10352538;28;2359;-68
2022/08/21 06:47:05;;;;;;;;;;;19.60;99.90;;;19.36;100.00;95756.72;10347629;28;2330;-69
2022/08/21 06:52:08;;;;;;;;;;;19.80;99.90;;;19.73;100.00;95757.00;10351009;28;2409;-70
2022/08/21 06:57:11;;;;;;;;;;;20.00;99.90;;;19.80;100.00;95758.06;10353024;28;1889;-70
2022/08/21 07:02:14;;;;;;;;;;;20.20;99.90;;;20.05;100.00;95750.00;10352587;28;2493;-70
2022/08/21 07:07:17;;;;;;;;;;;20.30;99.90;;;19.97;100.00;95744.25;10359348;28;2326;-70
2022/08/21 07:12:20;;;;;;;;;;;20.40;99.90;;;20.22;97.37;95749.81;10358360;28;2372;-71
2022/08/21 07:17:23;;;;;;;;;;;20.50;99.90;;;20.02;93.97;95745.19;10351140;28;2322;-69
2022/08/21 07:22:27;;;;;;;;;;;20.70;99.90;;;20.39;93.31;95743.41;10351716;28;2350;-71
2022/08/21 07:27:31;;;;;;;;;;;20.70;99.90;;;20.38;90.87;95739.88;10347526;28;1972;-68
2022/08/21 07:32:33;;;;;;;;;;;20.90;99.90;;;20.58;92.35;95737.44;10351674;28;2426;-72
2022/08/21 07:37:37;;;;;;;;;;;20.90;99.90;;;19.94;88.27;95739.47;10351893;28;2353;-69
2022/08/21 07:42:40;;;;;;;;;;;20.80;99.90;;;20.17;89.75;95730.94;10354625;28;2085;-69
2022/08/21 07:47:52;;;;;;;;;;;20.80;99.90;;;20.31;92.13;95738.81;10345510;28;2549;-72
2022/08/21 07:53:09;;;;;;;;;;;20.90;99.90;;;20.64;88.61;95736.09;10345799;28;2303;-69
2022/08/21 07:58:18;;;;;;;;;;;21.10;99.90;;;21.04;87.34;95726.09;10341646;28;1984;-68
2022/08/21 08:03:28;;;;;;;;;;;21.40;99.90;;;20.72;86.07;95725.06;10350669;28;2353;-69
2022/08/21 08:08:33;;;;;;;;;;;21.50;99.90;;;21.04;87.25;95720.63;10349356;28;2318;-70
2022/08/21 08:13:46;;;;;;;;;;;21.60;99.90;;;21.68;83.11;95723.78;10349028;28;2287;-76
2022/08/21 08:18:59;;;;;;;;;;;22.00;99.90;;;21.70;81.17;95721.53;10349157;28;2287;-75
2022/08/21 08:24:02;;;;;;;;;;;22.20;99.90;;;21.52;79.69;95724.50;10343859;28;2353;-73
2022/08/21 08:29:31;;;;;;;;;;;22.10;99.90;;;21.26;80.96;95715.88;10349249;28;2335;-71
2022/08/21 08:34:35;;;;;;;;;;;22.10;99.90;;;22.08;76.76;95707.38;10357683;28;2330;-70
2022/08/21 08:39:38;;;;;;;;;;;22.20;99.90;;;21.90;79.61;95711.53;10353221;28;2402;-71
2022/08/21 08:44:41;;;;;;;;;;;22.40;99.90;;;21.91;77.54;95711.19;10357506;28;2361;-72
2022/08/21 08:49:44;;;;;;;;;;;22.50;99.90;;;21.98;75.04;95719.59;10356531;28;2357;-71
2022/08/21 08:54:48;;;;;;;;;;;22.60;99.90;;;21.36;80.18;95720.09;10355434;28;1915;-71
2022/08/21 08:59:51;;;;;;;;;;;22.30;99.90;;;21.44;78.00;95713.69;10354073;28;2419;-69
2022/08/21 09:04:55;;;;;;;;;;;22.30;99.90;;;21.96;80.94;95713.69;10361916;28;2282;-70
2022/08/21 09:09:58;;;;;;;;;;;22.50;99.90;;;22.18;78.65;95708.81;10353160;28;2345;-69
2022/08/21 09:15:01;;;;;;;;;;;22.80;99.90;;;21.74;79.24;95716.94;10352924;28;2294;-68
2022/08/21 09:20:05;;;;;;;;;;;22.70;99.90;;;22.24;78.82;95705.47;10357856;28;2291;-69
2022/08/21 09:25:08;;;;;;;;;;;22.70;99.90;;;22.16;80.59;95705.66;10351081;28;2318;-72
2022/08/21 09:30:11;;;;;;;;;;;22.80;99.90;;;22.70;76.72;95700.41;10354014;28;2330;-69
2022/08/21 09:35:14;;;;;;;;;;;23.00;99.90;;;22.46;77.56;95706.88;10354774;28;2538;-70
2022/08/21 09:40:19;;;;;;;;;;;23.20;99.90;;;22.12;80.32;95698.13;10355744;28;2407;-70
2022/08/21 09:45:22;;;;;;;;;;;22.90;99.90;;;22.32;79.36;95701.78;10353979;28;2362;-69
2022/08/21 09:50:25;;;;;;;;;;;23.00;99.90;;;22.55;78.06;95688.31;10351022;28;2393;-70
2022/08/21 10:00:50;;;;;;;;;;;23.50;99.90;;;23.33;76.77;95683.13;10354478;28;2299;-68
2022/08/21 10:05:54;;;;;;;;;;;23.70;99.90;;;24.09;71.69;95681.63;10349160;28;2334;-69
2022/08/21 10:10:57;;;;;;;;;;;24.10;99.90;;;25.03;67.40;95690.41;10354295;28;2390;-75
2022/08/21 10:16:00;;;;;;;;;;;24.90;99.90;;;24.62;69.13;95676.38;10354585;28;2331;-70
2022/08/21 10:21:02;;;;;;;;;;;25.10;99.90;;;23.81;72.36;95676.38;10352218;28;2345;-70
2022/08/21 10:26:05;;;;;;;;;;;24.60;99.90;;;22.31;81.12;95678.28;10357421;28;2314;-69
2022/08/21 10:31:16;;;;;;;;;;;23.90;99.90;;;21.59;83.38;95674.69;10352712;28;2426;-69
2022/08/21 10:36:20;;;;;;;;;;;22.90;99.90;;;22.00;82.18;95672.72;10357024;28;2388;-69
2022/08/21 10:41:22;;;;;;;;;;;22.70;99.90;;;22.58;79.39;95671.16;10352187;28;1959;-69
2022/08/21 10:46:25;;;;;;;;;;;23.10;99.90;;;23.25;74.39;95673.16;10358527;28;2302;-69
2022/08/21 10:51:28;;;;;;;;;;;23.60;99.90;;;23.23;73.56;95680.97;10354711;28;2322;-69
2022/08/21 10:56:31;;;;;;;;;;;23.80;99.90;;;23.52;74.33;95669.47;10355031;28;2402;-69
2022/08/21 11:01:34;;;;;;;;;;;24.20;99.90;;;24.30;70.72;95652.97;10355305;28;2286;-69
2022/08/21 11:06:37;;;;;;;;;;;24.50;99.90;;;24.22;69.93;95647.38;10357798;28;2338;-70
2022/08/21 11:11:40;;;;;;;;;;;24.80;99.90;;;24.09;70.68;95645.16;10348468;28;2345;-68
2022/08/21 11:16:50;;;;;;;;;;;24.80;99.90;;;23.75;68.08;95644.09;10355303;28;2315;-68
2022/08/21 11:21:53;;;;;;;;;;;24.60;99.90;;;23.96;64.05;95639.81;10360296;28;1964;-68
2022/08/21 11:26:56;;;;;;;;;;;24.60;99.90;;;23.71;63.95;95638.53;10355094;28;2429;-69
2022/08/21 11:31:59;;;;;;;;;;;24.50;99.90;;;23.09;66.43;95643.81;10344081;28;2351;-69
2022/08/21 11:37:02;;;;;;;;;;;24.10;99.90;;;23.17;59.86;95629.13;10345363;28;2359;-71
2022/08/21 11:42:05;;;;;;;;;;;24.10;99.90;;;23.61;57.40;95630.84;10345663;28;2354;-69
2022/08/21 11:47:10;;;;;;;;;;;24.30;99.90;;;23.47;60.10;95614.88;10350740;28;2299;-70
2022/08/21 11:52:13;;;;;;;;;;;24.30;99.90;;;24.01;53.85;95622.25;10352724;28;2402;-70
2022/08/21 11:57:16;;;;;;;;;;;24.40;99.90;;;24.90;51.26;95617.53;10353348;28;1985;-75
2022/08/21 12:02:18;;;;;;;;;;;25.10;99.90;;;24.87;53.21;95615.50;10353736;28;2290;-72
2022/08/21 12:07:21;;;;;;;;;;;25.50;99.90;;;25.30;51.45;95612.25;10349202;28;2318;-71
2022/08/21 12:12:24;;;;;;;;;;;25.70;99.90;;;25.26;45.79;95608.66;10354433;28;2398;-69
2022/08/21 12:17:27;;;;;;;;;;;26.10;99.90;;;25.02;40.83;95589.81;10346024;28;2122;-69
2022/08/21 12:22:30;;;;;;;;;;;26.00;99.90;;;24.84;45.37;95595.06;10342833;28;1890;-73
2022/08/21 12:27:32;;;;;;;;;;;25.80;99.90;;;25.43;45.16;95592.75;10347608;28;2453;-70
2022/08/21 12:32:35;;;;;;;;;;;25.90;99.90;;;25.79;45.91;95594.03;10343628;28;2495;-71
2022/08/21 12:37:39;;;;;;;;;;;26.30;99.90;;;25.13;45.98;95584.47;10348955;28;2444;-72
2022/08/21 12:42:42;;;;;;;;;;;26.20;99.90;;;24.59;44.84;95586.41;10349746;28;2470;-71
2022/08/21 12:47:45;;;;;;;;;;;25.80;99.90;;;23.94;46.36;95578.22;10350214;28;2362;-72
2022/08/21 12:52:48;;;;;;;;;;;25.10;99.90;;;23.63;47.51;95560.75;10346393;28;1911;-73
2022/08/21 12:57:50;;;;;;;;;;;24.60;99.90;;;24.00;48.64;95563.03;10345373;28;2216;-72
2022/08/21 13:02:54;;;;;;;;;;;24.50;99.90;;;24.00;48.27;95565.78;10348005;28;2322;-73
2022/08/21 13:07:56;;;;;;;;;;;24.80;99.90;;;24.03;47.88;95556.78;10348067;28;2335;-74
2022/08/21 13:13:00;;;;;;;;;;;24.70;99.90;;;24.46;47.40;95557.56;10347632;28;2450;-73
2022/08/21 13:18:14;;;;;;;;;;;24.80;99.90;;;24.94;44.72;95555.94;10353352;28;2275;-73
2022/08/21 13:23:16;;;;;;;;;;;25.20;99.90;;;25.56;42.84;95552.81;10360682;28;2303;-72
2022/08/21 13:28:20;;;;;;;;;;;25.70;99.90;;;25.80;41.90;95551.56;10355450;28;2347;-72
2022/08/21 13:33:23;;;;;;;;;;;26.30;99.90;;;25.26;44.65;95552.88;10347642;28;2354;-72
2022/08/21 13:38:38;;;;;;;;;;;26.30;99.90;;;25.26;44.20;95548.16;10356376;28;2338;-70
2022/08/21 13:43:41;;;;;;;;;;;26.00;99.90;;;24.95;45.19;95535.53;10352472;28;2337;-72
2022/08/21 13:48:44;;;;;;;;;;;25.80;99.90;;;25.10;45.65;95536.53;10346509;28;2414;-71
2022/08/21 13:53:47;;;;;;;;;;;25.90;99.90;;;24.95;43.29;95530.03;10352473;28;2366;-70
2022/08/21 13:58:49;;;;;;;;;;;25.90;99.90;;;25.37;44.29;95528.22;10350853;28;1984;-71
2022/08/21 14:03:52;;;;;;;;;;;26.00;99.90;;;25.11;45.30;95535.34;10352189;28;2276;-70
2022/08/21 14:08:55;;;;;;;;;;;26.00;99.90;;;25.25;44.29;95532.78;10348927;28;2325;-71
2022/08/21 14:13:58;;;;;;;;;;;25.90;99.90;;;25.20;43.86;95533.13;10357682;28;2279;-70
2022/08/21 14:19:01;;;;;;;;;;;25.90;99.90;;;25.02;42.99;95529.31;10347494;28;1951;-73
2022/08/21 14:24:05;;;;;;;;;;;25.90;99.90;;;24.54;43.83;95534.50;10352655;28;2370;-70
2022/08/21 14:29:08;;;;;;;;;;;25.60;99.90;;;24.17;45.36;95531.53;10348682;28;2450;-69
2022/08/21 14:34:13;;;;;;;;;;;25.20;99.90;;;24.50;44.34;95530.94;10349718;28;2429;-69
2022/08/21 14:39:21;;;;;;;;;;;25.20;99.90;;;24.64;43.12;95528.41;10354465;28;2357;-69
2022/08/21 14:44:24;;;;;;;;;;;25.30;99.90;;;24.12;45.38;95527.16;10353660;28;2461;-71
2022/08/21 14:49:28;;;;;;;;;;;25.10;99.90;;;24.18;44.59;95520.19;10355038;28;2291;-73
2022/08/21 14:54:31;;;;;;;;;;;24.90;99.90;;;24.39;44.88;95513.50;10354442;28;2314;-73
2022/08/21 14:59:34;;;;;;;;;;;25.10;99.90;;;24.49;45.71;95512.84;10353948;28;1921;-72
2022/08/21 15:04:37;;;;;;;;;;;25.30;99.90;;;23.74;47.22;95506.09;10349581;28;2393;-73
2022/08/21 15:09:40;;;;;;;;;;;24.90;99.90;;;23.20;47.60;95520.69;10347370;28;2367;-74
2022/08/21 15:14:43;;;;;;;;;;;24.40;99.90;;;23.23;47.64;95513.69;10350093;28;2311;-73
2022/08/21 15:19:45;;;;;;;;;;;24.10;99.90;;;22.92;47.83;95507.19;10347650;28;2475;-74
2022/08/21 15:24:48;;;;;;;;;;;24.00;99.90;;;23.25;46.85;95511.38;10359208;28;2315;-74
2022/08/21 15:29:53;;;;;;;;;;;24.00;99.90;;;23.38;46.15;95507.34;10351482;28;1954;-75
2022/08/21 15:34:56;;;;;;;;;;;24.20;99.90;;;23.48;46.23;95506.75;10354551;28;2323;-75
2022/08/21 15:39:59;;;;;;;;;;;24.20;99.90;;;23.49;45.31;95505.59;10343675;28;2338;-76
2022/08/21 15:45:02;;;;;;;;;;;24.30;99.90;;;23.57;44.14;95506.50;10351014;28;2362;-69
2022/08/21 15:50:05;;;;;;;;;;;24.50;99.90;;;23.51;43.48;95497.78;10350020;28;2472;-70
2022/08/21 15:55:12;;;;;;;;;;;24.40;99.90;;;23.37;43.96;95492.03;10344646;28;1910;-70
2022/08/21 16:00:15;;;;;;;;;;;24.30;99.90;;;23.16;43.71;95495.94;10348714;28;2386;-70
2022/08/21 16:05:20;;;;;;;;;;;24.20;99.90;;;23.09;43.82;95492.25;10352108;28;2413;-70
2022/08/21 16:10:23;;;;;;;;;;;24.00;99.90;;;23.11;43.44;95482.53;10351734;28;1949;-70
2022/08/21 16:15:31;;;;;;;;;;;24.00;99.90;;;23.03;43.10;95490.94;10354051;28;2462;-70
2022/08/21 16:20:34;;;;;;;;;;;23.90;99.90;;;22.98;43.46;95494.00;10353435;28;2322;-76
2022/08/21 16:25:37;;;;;;;;;;;23.90;99.90;;;22.82;43.70;95480.31;10350963;28;2758;-70
2022/08/21 16:30:41;;;;;;;;;;;23.80;99.90;;;22.87;43.66;95482.78;10347398;28;2346;-70
2022/08/21 16:35:44;;;;;;;;;;;23.70;99.90;;;22.81;43.86;95474.03;10356184;28;2320;-70
2022/08/21 16:40:49;;;;;;;;;;;23.70;99.90;;;22.78;45.34;95477.50;10344360;28;2406;-70
2022/08/21 16:45:52;;;;;;;;;;;23.70;99.90;;;22.70;46.48;95470.25;10354369;28;2272;-70
2022/08/21 16:50:55;;;;;;;;;;;23.60;99.90;;;22.51;47.04;95465.53;10351998;28;2314;-69
2022/08/21 16:55:59;;;;;;;;;;;23.50;99.90;;;22.42;47.56;95464.97;10359042;28;2295;-71
2022/08/21 17:01:03;;;;;;;;;;;23.30;99.90;;;22.36;46.74;95463.66;10357271;28;2355;-70
2022/08/21 17:06:06;;;;;;;;;;;23.30;99.90;;;22.25;46.29;95459.84;10360012;28;2278;-71
2022/08/21 17:11:08;;;;;;;;;;;23.20;99.90;;;22.19;46.76;95477.72;10353469;28;2278;-69
2022/08/21 17:16:11;;;;;;;;;;;23.10;99.90;;;22.06;47.29;95474.25;10351799;28;1911;-70
2022/08/21 17:21:14;;;;;;;;;;;23.00;99.90;;;22.04;46.77;95474.59;10352538;28;2422;-69
2022/08/21 17:26:20;;;;;;;;;;;23.00;99.90;;;22.02;46.63;95474.16;10360458;28;2338;-69
2022/08/21 17:31:23;;;;;;;;;;;22.90;99.90;;;21.86;47.31;95476.09;10353300;28;2341;-69
2022/08/21 17:36:26;;;;;;;;;;;22.90;99.90;;;21.74;47.54;95476.19;10350998;28;2342;-70
2022/08/21 17:41:29;;;;;;;;;;;22.80;99.90;;;21.60;48.20;95479.34;10357100;28;2379;-69
2022/08/21 17:46:31;;;;;;;;;;;22.60;99.90;;;21.52;48.47;95478.38;10357326;28;2286;-70
2022/08/21 17:51:34;;;;;;;;;;;22.50;99.90;;;21.27;49.36;95469.47;10356936;28;2442;-70
2022/08/21 17:56:37;;;;;;;;;;;22.40;99.90;;;21.01;50.52;95474.59;10363518;28;2397;-70
2022/08/21 18:01:41;;;;;;;;;;;22.20;99.90;;;20.91;50.45;95481.34;10352933;28;2350;-70
2022/08/21 18:06:44;;;;;;;;;;;22.00;99.90;;;20.85;50.63;95474.53;10353381;28;2342;-70
2022/08/21 18:11:47;;;;;;;;;;;21.90;99.90;;;20.62;51.29;95485.19;10351473;28;2349;-72
2022/08/21 18:16:50;;;;;;;;;;;21.80;99.90;;;20.38;52.39;95488.72;10353487;28;2343;-71
2022/08/21 18:21:53;;;;;;;;;;;21.60;99.90;;;20.13;53.00;95498.06;10351539;28;2415;-70
2022/08/21 18:26:55;;;;;;;;;;;21.40;99.90;;;19.96;55.81;95507.25;10355270;28;2445;-70
2022/08/21 18:31:58;;;;;;;;;;;21.20;99.90;;;19.77;58.16;95510.53;10355423;28;2341;-68
2022/08/21 18:37:01;;;;;;;;;;;21.00;99.90;;;19.57;57.33;95511.34;10356340;28;1976;-69
2022/08/21 18:42:04;;;;;;;;;;;20.90;99.90;;;19.54;58.03;95506.59;10354751;28;2652;-70
2022/08/21 18:47:07;;;;;;;;;;;20.70;99.90;;;19.49;58.93;95513.06;10349675;28;1863;-69
2022/08/21 18:52:10;;;;;;;;;;;20.80;99.90;;;19.33;58.81;95518.31;10343426;28;1956;-71
2022/08/21 18:57:33;;;;;;;;;;;20.70;99.90;;;19.18;61.46;95511.56;10348163;28;2420;-70
2022/08/21 19:02:36;;;;;;;;;;;20.50;99.90;;;19.05;63.05;95517.31;10345380;28;2727;-72
2022/08/21 19:07:45;;;;;;;;;;;20.30;99.90;;;18.81;65.48;95507.88;10348731;28;2287;-73
2022/08/21 19:12:48;;;;;;;;;;;20.20;99.90;;;18.64;72.00;95518.88;10347564;28;2345;-75
2022/08/21 19:17:51;;;;;;;;;;;20.00;99.90;;;18.80;74.13;95517.19;10347085;28;2334;-67
2022/08/21 19:22:56;;;;;;;;;;;19.90;99.90;;;18.44;75.63;95528.59;10345221;28;2361;-70
2022/08/21 19:27:59;;;;;;;;;;;19.70;99.90;;;18.36;75.63;95535.69;10342605;28;1909;-70
2022/08/21 19:33:01;;;;;;;;;;;19.60;99.90;;;18.23;78.55;95531.28;10337936;28;2274;-71
2022/08/21 19:38:05;;;;;;;;;;;19.40;99.90;;;18.14;79.85;95533.25;10346996;28;2355;-70
2022/08/21 19:43:11;;;;;;;;;;;19.30;99.90;;;18.10;81.37;95532.31;10343489;28;2370;-70
2022/08/21 19:48:14;;;;;;;;;;;19.30;99.90;;;18.04;81.22;95530.91;10347819;28;2248;-69
2022/08/21 19:53:21;;;;;;;;;;;19.20;99.90;;;17.93;84.76;95532.38;10346806;28;1902;-71
2022/08/21 19:58:25;;;;;;;;;;;19.10;99.90;;;17.79;86.97;95530.66;10344762;28;2688;-69
2022/08/21 20:03:27;;;;;;;;;;;19.00;99.90;;;17.82;86.12;95527.31;10353664;28;2004;-75
2022/08/21 20:08:30;;;;;;;;;;;19.00;99.90;;;17.80;87.21;95529.53;10351912;28;2358;-75
2022/08/21 20:13:33;;;;;;;;;;;18.90;99.90;;;17.77;88.15;95524.75;10353728;28;2369;-77
2022/08/21 20:18:36;;;;;;;;;;;18.90;99.90;;;17.65;88.41;95521.91;10344713;28;1962;-75
2022/08/21 20:23:43;;;;;;;;;;;18.80;99.90;;;17.49;90.11;95518.09;10345712;28;2638;-76
2022/08/21 20:28:50;;;;;;;;;;;18.70;99.90;;;17.42;93.49;95521.31;10344786;28;2611;-74
2022/08/21 20:33:56;;;;;;;;;;;18.60;99.90;;;17.36;96.46;95524.50;10354240;28;2733;-75
2022/08/21 20:38:59;;;;;;;;;;;18.60;99.90;;;17.28;95.01;95518.78;10348293;28;2177;-75
2022/08/21 20:44:02;;;;;;;;;;;18.50;99.90;;;17.26;97.81;95522.94;10343397;28;2624;-75
2022/08/21 20:49:08;;;;;;;;;;;18.40;99.90;;;17.22;99.12;95520.06;10350671;28;2201;-75
2022/08/21 20:54:11;;;;;;;;;;;18.40;99.90;;;17.11;99.64;95524.22;10350217;28;2659;-75
2022/08/21 20:59:14;;;;;;;;;;;18.30;99.90;;;17.02;100.00;95520.72;10348926;28;2560;-75
2022/08/21 21:04:17;;;;;;;;;;;18.20;99.90;;;17.00;100.00;95522.97;10343531;28;2636;-75
2022/08/21 21:09:21;;;;;;;;;;;18.10;99.90;;;16.98;100.00;95514.31;10351394;28;2247;-74
2022/08/21 21:14:24;;;;;;;;;;;18.00;99.90;;;16.96;100.00;95516.56;10346801;28;2612;-75
2022/08/21 21:19:26;;;;;;;;;;;18.00;99.90;;;16.88;100.00;95509.25;10352183;28;2660;-75
2022/08/21 21:24:29;;;;;;;;;;;18.00;99.90;;;16.83;100.00;95518.34;10355775;28;2204;-75
2022/08/21 21:29:33;;;;;;;;;;;17.90;99.90;;;16.86;100.00;95516.88;10346413;28;2696;-77
2022/08/21 21:34:38;;;;;;;;;;;17.90;99.90;;;16.78;100.00;95517.69;10349715;28;2624;-76
2022/08/21 21:39:41;;;;;;;;;;;17.80;99.90;;;16.76;100.00;95526.16;10352257;28;2615;-76
2022/08/21 21:44:44;;;;;;;;;;;17.80;99.90;;;16.64;100.00;95521.31;10352542;28;2581;-76
2022/08/21 21:49:48;;;;;;;;;;;17.70;99.90;;;16.61;100.00;95526.59;10354522;28;2674;-76
2022/08/21 21:54:53;;;;;;;;;;;17.70;99.90;;;16.51;100.00;95521.47;10356196;28;2644;-75
2022/08/21 21:59:57;;;;;;;;;;;17.60;99.90;;;16.49;100.00;95524.50;10352523;28;2133;-73
2022/08/21 22:05:01;;;;;;;;;;;17.60;99.90;;;16.41;100.00;95523.38;10352324;28;2555;-72
2022/08/21 22:10:04;;;;;;;;;;;17.60;99.90;;;16.33;100.00;95532.28;10355116;28;2627;-74
2022/08/21 22:15:21;;;;;;;;;;;17.50;99.90;;;16.30;100.00;95518.56;10357452;28;2241;-72
2022/08/21 22:20:29;;;;;;;;;;;17.40;99.90;;;16.22;100.00;95517.41;10351503;28;2671;-72
2022/08/21 22:25:32;;;;;;;;;;;17.40;99.90;;;16.18;100.00;95517.25;10356916;28;2122;-73
2022/08/21 22:30:35;;;;;;;;;;;17.30;99.90;;;16.13;100.00;95522.03;10348853;28;2656;-73
2022/08/21 22:35:41;;;;;;;;;;;17.30;99.90;;;16.12;100.00;95526.66;10358978;28;2664;-76
2022/08/21 22:40:45;;;;;;;;;;;17.20;99.90;;;16.11;100.00;95524.25;10352646;28;2609;-78
2022/08/21 22:45:50;;;;;;;;;;;17.30;99.90;;;15.99;100.00;95522.16;10352560;28;2196;-72
2022/08/21 22:50:53;;;;;;;;;;;17.20;99.90;;;15.90;100.00;95526.72;10353244;28;2828;-74
2022/08/21 22:55:56;;;;;;;;;;;16.90;99.90;;;15.87;100.00;95524.66;10351524;28;2164;-74
2022/08/21 23:00:59;;;;;;;;;;;17.00;99.90;;;15.79;100.00;95522.72;10357048;28;2673;-72
2022/08/21 23:06:04;;;;;;;;;;;16.90;99.90;;;15.71;100.00;95526.97;10356879;28;2660;-73
2022/08/21 23:11:14;;;;;;;;;;;16.90;99.90;;;15.73;100.00;95526.66;10351216;28;2619;-72
2022/08/21 23:16:18;;;;;;;;;;;16.80;99.90;;;15.65;100.00;95520.91;10351056;28;2560;-74